Map

Track Data

SID SEASON NUMBER BASIN SUBBASIN NAME ISO_TIME NATURE LAT LON WMO_WIND WMO_PRES WMO_AGENCY TRACK_TYPE DIST2LAND LANDFALL IFLAG USA_AGENCY USA_ATCF_ID USA_LAT USA_LON USA_RECORD USA_STATUS USA_WIND USA_PRES USA_SSHS USA_R34_NE USA_R34_SE USA_R34_SW USA_R34_NW USA_R50_NE USA_R50_SE USA_R50_SW USA_R50_NW USA_R64_NE USA_R64_SE USA_R64_SW USA_R64_NW USA_POCI USA_ROCI USA_RMW USA_EYE TOKYO_LAT TOKYO_LON TOKYO_GRADE TOKYO_WIND TOKYO_PRES TOKYO_R50_DIR TOKYO_R50_LONG TOKYO_R50_SHORT TOKYO_R30_DIR TOKYO_R30_LONG TOKYO_R30_SHORT TOKYO_LAND CMA_LAT CMA_LON CMA_CAT CMA_WIND CMA_PRES HKO_LAT HKO_LON HKO_CAT HKO_WIND HKO_PRES NEWDELHI_LAT NEWDELHI_LON NEWDELHI_GRADE NEWDELHI_WIND NEWDELHI_PRES NEWDELHI_CI NEWDELHI_DP NEWDELHI_POCI REUNION_LAT REUNION_LON REUNION_TYPE REUNION_WIND REUNION_PRES REUNION_TNUM REUNION_CI REUNION_RMW REUNION_R34_NE REUNION_R34_SE REUNION_R34_SW REUNION_R34_NW REUNION_R50_NE REUNION_R50_SE REUNION_R50_SW REUNION_R50_NW REUNION_R64_NE REUNION_R64_SE REUNION_R64_SW REUNION_R64_NW BOM_LAT BOM_LON BOM_TYPE BOM_WIND BOM_PRES BOM_TNUM BOM_CI BOM_RMW BOM_R34_NE BOM_R34_SE BOM_R34_SW BOM_R34_NW BOM_R50_NE BOM_R50_SE BOM_R50_SW BOM_R50_NW BOM_R64_NE BOM_R64_SE BOM_R64_SW BOM_R64_NW BOM_ROCI BOM_POCI BOM_EYE BOM_POS_METHOD BOM_PRES_METHOD NADI_LAT NADI_LON NADI_CAT NADI_WIND NADI_PRES WELLINGTON_LAT WELLINGTON_LON WELLINGTON_WIND WELLINGTON_PRES DS824_LAT DS824_LON DS824_STAGE DS824_WIND DS824_PRES TD9636_LAT TD9636_LON TD9636_STAGE TD9636_WIND TD9636_PRES TD9635_LAT TD9635_LON TD9635_WIND TD9635_PRES TD9635_ROCI NEUMANN_LAT NEUMANN_LON NEUMANN_CLASS NEUMANN_WIND NEUMANN_PRES MLC_LAT MLC_LON MLC_CLASS MLC_WIND MLC_PRES USA_GUST BOM_GUST BOM_GUST_PER REUNION_GUST REUNION_GUST_PER USA_SEAHGT USA_SEARAD_NE USA_SEARAD_SE USA_SEARAD_SW USA_SEARAD_NW STORM_SPEED STORM_DIR
2022073S14103 2022 17 SI WA BILLY 2022-03-13 18:00:00 NR -13.6000 103.300 PROVISIONAL 772 772 O_____________ tcvitals SI202022 -13.6000 103.300 35 998 0 35 30 1006 180 35 17 243
2022073S14103 2022 17 SI WA BILLY 2022-03-13 21:00:00 NR -14.0005 102.506 PROVISIONAL 853 853 P_____________ SI202022 -14.0005 102.506 37 998 0 17 241
2022073S14103 2022 17 SI WA BILLY 2022-03-14 00:00:00 NR -14.4138 101.763 PROVISIONAL 928 928 I_____________ tcvitals SI202022 -14.4138 101.763 40 998 0 16 238
2022073S14103 2022 17 SI WA BILLY 2022-03-14 03:00:00 NR -14.8502 101.119 PROVISIONAL 1011 1011 P_____________ SI202022 -14.8502 101.119 42 998 0 14 232
2022073S14103 2022 17 SI WA BILLY 2022-03-14 06:00:00 NR -15.3000 100.600 PROVISIONAL 1076 1076 O_____________ tcvitals SI202022 -15.3000 100.600 45 998 0 45 80 75 35 1006 190 25 13 223
2022073S14103 2022 17 SI WA BILLY 2022-03-14 09:00:00 NR -15.7786 100.237 PROVISIONAL 1145 1145 P_____________ SI202022 -15.7786 100.237 48 996 0 55 75 80 42 1005 185 25 11 217
2022073S14103 2022 17 SI WA BILLY 2022-03-14 12:00:00 NR -16.2000 99.9000 PROVISIONAL 1200 1200 O_____________ tcvitals SI202022 -16.2000 99.9000 51 994 0 65 70 85 50 1005 180 25 11 228
2022073S14103 2022 17 SI WA BILLY 2022-03-14 15:00:00 NR -16.4950 99.4224 PROVISIONAL 1256 1256 P_____________ SI202022 -16.4950 99.4224 55 991 0 67 75 82 50 1005 172 22 11 242
2022073S14103 2022 17 SI WA BILLY 2022-03-14 18:00:00 NR -16.7000 98.9000 PROVISIONAL 1303 1303 O_____________ tcvitals SI202022 -16.7000 98.9000 60 989 0 70 80 80 50 1005 165 20 11 249
2022073S14103 2022 17 SI WA BILLY 2022-03-14 21:00:00 NR -16.8875 98.3775 PROVISIONAL 1351 1351 P_____________ SI202022 -16.8875 98.3775 57 990 0 70 85 82 55 1005 157 20 10 253
2022073S14103 2022 17 SI WA BILLY 2022-03-15 00:00:00 NR -17.0000 97.9000 PROVISIONAL 1390 1390 O_____________ tcvitals SI202022 -17.0000 97.9000 54 991 0 70 90 85 60 1005 150 20 8 263
2022073S14103 2022 17 SI WA BILLY 2022-03-15 03:00:00 NR -16.9847 97.5496 PROVISIONAL 1416 1416 P_____________ SI202022 -16.9847 97.5496 54 992 0 67 90 85 55 1006 150 22 7 270
2022073S14103 2022 17 SI WA BILLY 2022-03-15 06:00:00 NR -17.0000 97.2000 PROVISIONAL 1435 1435 O_____________ tcvitals SI202022 -17.0000 97.2000 54 993 0 65 90 85 50 1007 150 25 8 252
2022073S14103 2022 17 SI WA BILLY 2022-03-15 09:00:00 NR -17.2426 96.7155 PROVISIONAL 1486 1486 P_____________ SI202022 -17.2426 96.7155 54 993 0 60 85 77 50 1007 150 25 11 242
2022073S14103 2022 17 SI WA BILLY 2022-03-15 12:00:00 NR -17.5000 96.2000 PROVISIONAL 1546 1546 O_____________ tcvitals SI202022 -17.5000 96.2000 54 993 0 55 80 70 50 1007 150 25 10 251
2022073S14103 2022 17 SI WA BILLY 2022-03-15 15:00:00 NR -17.5649 95.7272 PROVISIONAL 1589 1589 P_____________ SI202022 -17.5649 95.7272 54 992 0 57 90 77 50 1006 147 25 9 263
2022073S14103 2022 17 SI WA BILLY 2022-03-15 18:00:00 NR -17.6000 95.3000 PROVISIONAL 1617 1617 O_____________ tcvitals SI202022 -17.6000 95.3000 54 992 0 60 100 85 50 1006 145 25 8 256
2022073S14103 2022 17 SI WA BILLY 2022-03-15 21:00:00 NR -17.7422 94.9575 PROVISIONAL 1647 1647 P_____________ SI202022 -17.7422 94.9575 52 992 0 65 90 80 62 1005 140 25 7 246
2022073S14103 2022 17 SI WA BILLY 2022-03-16 00:00:00 NR -17.9000 94.6000 PROVISIONAL 1693 1693 O_____________ tcvitals SI202022 -17.9000 94.6000 51 993 0 70 80 75 75 1005 135 25 8 256
2022073S14103 2022 17 SI WA BILLY 2022-03-16 03:00:00 NR -17.9477 94.0995 PROVISIONAL 1730 1730 P_____________ SI202022 -17.9477 94.0995 45 996 0 47 92 72 50 1005 135 35 10 258
2022073S14103 2022 17 SI WA BILLY 2022-03-16 06:00:00 NR -18.1000 93.6000 PROVISIONAL 1784 1784 O_____________ tcvitals SI202022 -18.1000 93.6000 39 1000 0 25 105 70 25 1006 135 45 11 234
2022073S14103 2022 17 SI WA BILLY 2022-03-16 09:00:00 NR -18.5774 93.1980 PROVISIONAL 1853 1853 P_____________ SI202022 -18.5774 93.1980 39 1000 0 37 82 67 35 1006 135 45 12 214
2022073S14103 2022 17 SI WA BILLY 2022-03-16 12:00:00 NR -19.1000 92.9000 PROVISIONAL 1914 1914 O_____________ tcvitals SI202022 -19.1000 92.9000 39 1000 0 50 60 65 45 1006 135 45 9 210
2022073S14103 2022 17 SI WA BILLY 2022-03-16 15:00:00 NR -19.3724 92.7047 PROVISIONAL 1953 1953 P_____________ SI202022 -19.3724 92.7047 39 1000 0 85 35 1006 130 55 6 210
2022073S14103 2022 17 SI WA BILLY 2022-03-16 18:00:00 NR -19.6000 92.6000 PROVISIONAL 1976 1976 O_____________ tcvitals SI202022 -19.6000 92.6000 39 1000 0 105 25 1006 126 65 6 203
2022073S14103 2022 17 SI WA BILLY 2022-03-16 21:00:00 NR -19.8899 92.4755 PROVISIONAL 2007 2007 P_____________ SI202022 -19.8899 92.4755 37 1001 0 97 1006 120 65 7 188
2022073S14103 2022 17 SI WA BILLY 2022-03-17 00:00:00 NR -20.3000 92.5000 PROVISIONAL 2039 2039 O_____________ tcvitals SI202022 -20.3000 92.5000 35 1002 0 90 1006 115 65 10 164
2022073S14103 2022 17 SI WA BILLY 2022-03-17 03:00:00 NR -20.8954 92.7737 PROVISIONAL 2067 2067 P_____________ SI202022 -20.8954 92.7737 32 1001 -1 1006 132 62 15 153
2022073S14103 2022 17 SI WA BILLY 2022-03-17 06:00:00 NR -21.6000 93.2000 PROVISIONAL 2088 O_____________ tcvitals SI202022 -21.6000 93.2000 29 1001 -1 1006 150 60 16 151

About IBTrACS Database

This database is a web-friendly format of International Best Track Archive for Climate Stewardship (IBTrACS), a global best track data archive curated by NOAA dating back to 1842.

Updated: 2022-11-16